Time,TemperatureF,DewpointF,PressureIn,WindDirection,WindDirectionDegrees,WindSpeedMPH,WindSpeedGustMPH,Humidity,HourlyPrecipIn,Conditions,Clouds,dailyrainin,SoftwareType,DateUTC
2013-04-27 00:02:00,51.4,44.1,30.11,SSW,212,0.0,0.0,76,0.00,,,0.00,Wunderground v.1.15,2013-04-27 05:02:00,
2013-04-27 00:08:00,51.8,43.8,30.10,SSW,212,0.0,0.0,74,0.00,,,0.00,Wunderground v.1.15,2013-04-27 05:08:00,
2013-04-27 00:14:00,50.6,43.3,30.11,SSW,212,0.0,0.0,76,0.00,,,0.00,Wunderground v.1.15,2013-04-27 05:14:00,
2013-04-27 00:20:00,49.5,43.3,30.10,SSW,212,0.0,0.0,79,0.00,,,0.00,Wunderground v.1.15,2013-04-27 05:20:00,
2013-04-27 00:26:00,49.0,42.8,30.10,SSW,212,0.0,0.0,79,0.00,,,0.00,Wunderground v.1.15,2013-04-27 05:26:00,
2013-04-27 00:31:00,48.6,42.7,30.11,SSW,212,0.0,0.0,80,0.00,,,0.00,Wunderground v.1.15,2013-04-27 05:31:00,
2013-04-27 00:37:00,48.5,42.9,30.11,South,190,0.0,0.0,81,0.00,,,0.00,Wunderground v.1.15,2013-04-27 05:37:00,
2013-04-27 00:43:00,48.8,43.5,30.11,SSW,192,0.0,0.0,82,0.00,,,0.00,Wunderground v.1.15,2013-04-27 05:43:00,
2013-04-27 00:49:00,48.8,42.9,30.11,SSW,192,0.0,0.0,80,0.00,,,0.00,Wunderground v.1.15,2013-04-27 05:49:00,
2013-04-27 00:55:00,48.5,42.9,30.11,SSW,192,0.0,0.0,81,0.00,,,0.00,Wunderground v.1.15,2013-04-27 05:55:00,
2013-04-27 01:00:00,48.5,43.3,30.11,SSW,192,0.0,0.0,82,0.00,,,0.00,Wunderground v.1.15,2013-04-27 06:00:00,
2013-04-27 01:06:00,48.7,43.8,30.11,SSW,192,0.0,0.0,83,0.00,,,0.00,Wunderground v.1.15,2013-04-27 06:06:00,
2013-04-27 01:12:00,49.1,44.2,30.11,South,190,0.0,0.0,83,0.00,,,0.00,Wunderground v.1.15,2013-04-27 06:12:00,
2013-04-27 01:18:00,49.3,44.4,30.11,South,186,0.0,0.0,83,0.00,,,0.00,Wunderground v.1.15,2013-04-27 06:18:00,
2013-04-27 01:24:00,49.2,44.3,30.11,SSW,202,0.0,0.0,83,0.00,,,0.00,Wunderground v.1.15,2013-04-27 06:24:00,
2013-04-27 01:29:00,49.1,44.2,30.11,SSW,204,0.0,0.0,83,0.00,,,0.00,Wunderground v.1.15,2013-04-27 06:29:00,
2013-04-27 01:35:00,49.0,44.4,30.11,SSW,206,0.0,0.0,84,0.00,,,0.00,Wunderground v.1.15,2013-04-27 06:35:00,
2013-04-27 01:41:00,48.8,44.2,30.11,SSW,207,0.0,0.0,84,0.00,,,0.00,Wunderground v.1.15,2013-04-27 06:41:00,
2013-04-27 01:47:00,48.7,44.1,30.11,SW,215,0.0,0.0,84,0.00,,,0.00,Wunderground v.1.15,2013-04-27 06:47:00,
2013-04-27 01:53:00,48.3,44.0,30.10,SW,225,0.0,0.0,85,0.00,,,0.00,Wunderground v.1.15,2013-04-27 06:53:00,
2013-04-27 01:59:00,48.0,44.0,30.10,SW,232,0.0,0.0,86,0.00,,,0.00,Wunderground v.1.15,2013-04-27 06:59:00,
2013-04-27 02:04:00,48.1,44.1,30.10,SW,234,0.0,0.0,86,0.00,,,0.00,Wunderground v.1.15,2013-04-27 07:04:00,
2013-04-27 02:09:00,48.3,44.3,30.10,SW,225,0.0,0.0,86,0.00,,,0.00,Wunderground v.1.15,2013-04-27 07:09:00,
2013-04-27 02:15:00,48.5,44.5,30.10,SW,221,0.0,0.0,86,0.00,,,0.00,Wunderground v.1.15,2013-04-27 07:15:00,
2013-04-27 02:21:00,48.8,44.8,30.10,SW,227,0.0,0.0,86,0.00,,,0.00,Wunderground v.1.15,2013-04-27 07:21:00,
2013-04-27 02:27:00,49.0,44.7,30.10,WSW,248,0.0,0.0,85,0.00,,,0.00,Wunderground v.1.15,2013-04-27 07:27:00,
2013-04-27 02:33:00,48.6,42.7,30.10,WSW,248,0.0,0.0,80,0.00,,,0.00,Wunderground v.1.15,2013-04-27 07:33:00,
2013-04-27 02:39:00,46.5,41.0,30.10,SW,222,0.0,0.0,81,0.00,,,0.00,Wunderground v.1.15,2013-04-27 07:39:00,
2013-04-27 02:44:00,45.0,40.5,30.10,SW,234,0.0,0.0,84,0.00,,,0.00,Wunderground v.1.15,2013-04-27 07:44:00,
2013-04-27 02:50:00,44.0,40.1,30.10,SW,234,0.0,0.0,86,0.00,,,0.00,Wunderground v.1.15,2013-04-27 07:50:00,
2013-04-27 02:56:00,43.6,40.3,30.10,SW,226,0.0,0.0,88,0.00,,,0.00,Wunderground v.1.15,2013-04-27 07:56:00,
2013-04-27 03:02:00,43.6,40.6,30.10,SW,231,0.0,0.0,89,0.00,,,0.00,Wunderground v.1.15,2013-04-27 08:02:00,
2013-04-27 03:08:00,43.6,40.9,30.09,SW,217,0.0,0.0,90,0.00,,,0.00,Wunderground v.1.15,2013-04-27 08:08:00,
2013-04-27 03:14:00,43.4,40.7,30.09,SSE,155,0.0,0.0,90,0.00,,,0.00,Wunderground v.1.15,2013-04-27 08:14:00,
2013-04-27 03:20:00,43.8,41.6,30.10,SSE,154,0.0,0.0,92,0.00,,,0.00,Wunderground v.1.15,2013-04-27 08:20:00,
2013-04-27 03:26:00,44.4,42.2,30.09,SSE,149,0.0,0.0,92,0.00,,,0.00,Wunderground v.1.15,2013-04-27 08:26:00,
2013-04-27 03:32:00,44.8,42.6,30.09,SSE,153,0.0,0.0,92,0.00,,,0.00,Wunderground v.1.15,2013-04-27 08:32:00,
2013-04-27 03:37:00,45.0,42.8,30.09,SSE,153,0.0,0.0,92,0.00,,,0.00,Wunderground v.1.15,2013-04-27 08:37:00,
2013-04-27 03:43:00,45.2,43.0,30.09,SSE,153,0.0,0.0,92,0.00,,,0.00,Wunderground v.1.15,2013-04-27 08:43:00,
2013-04-27 03:49:00,45.3,43.1,30.09,SSE,153,0.0,0.0,92,0.00,,,0.00,Wunderground v.1.15,2013-04-27 08:49:00,
2013-04-27 03:55:00,44.8,41.8,30.09,SSE,153,0.0,0.0,89,0.00,,,0.00,Wunderground v.1.15,2013-04-27 08:55:00,
2013-04-27 04:00:00,43.4,39.8,30.09,SSE,153,0.0,0.0,87,0.00,,,0.00,Wunderground v.1.15,2013-04-27 09:00:00,
2013-04-27 04:06:00,43.1,40.4,30.09,SE,132,0.0,0.0,90,0.00,,,0.00,Wunderground v.1.15,2013-04-27 09:06:00,
2013-04-27 04:11:00,43.1,40.7,30.09,SE,133,0.0,0.0,91,0.00,,,0.00,Wunderground v.1.15,2013-04-27 09:11:00,
2013-04-27 04:17:00,43.3,41.4,30.09,SE,133,0.0,0.0,93,0.00,,,0.00,Wunderground v.1.15,2013-04-27 09:17:00,
2013-04-27 04:23:00,43.8,41.9,30.09,SE,133,0.0,0.0,93,0.00,,,0.00,Wunderground v.1.15,2013-04-27 09:23:00,
2013-04-27 04:29:00,44.0,42.1,30.09,SE,138,0.0,0.0,93,0.00,,,0.00,Wunderground v.1.15,2013-04-27 09:29:00,
2013-04-27 04:35:00,43.9,41.7,30.09,SE,138,0.0,0.0,92,0.00,,,0.00,Wunderground v.1.15,2013-04-27 09:35:00,
2013-04-27 04:41:00,44.1,42.2,30.09,SE,141,0.0,0.0,93,0.00,,,0.00,Wunderground v.1.15,2013-04-27 09:41:00,
2013-04-27 04:46:00,44.2,42.3,30.09,SE,146,0.0,0.0,93,0.00,,,0.00,Wunderground v.1.15,2013-04-27 09:46:00,
2013-04-27 04:52:00,44.3,42.4,30.09,SE,146,0.0,0.0,93,0.00,,,0.00,Wunderground v.1.15,2013-04-27 09:52:00,
2013-04-27 04:58:00,44.0,41.8,30.09,SE,146,0.0,0.0,92,0.00,,,0.00,Wunderground v.1.15,2013-04-27 09:58:00,
2013-04-27 05:04:00,43.8,41.6,30.09,SE,146,0.0,0.0,92,0.00,,,0.00,Wunderground v.1.15,2013-04-27 10:04:00,
2013-04-27 05:10:00,43.6,41.7,30.10,SE,146,0.0,0.0,93,0.00,,,0.00,Wunderground v.1.15,2013-04-27 10:10:00,
2013-04-27 05:16:00,43.5,41.6,30.09,SE,146,0.0,0.0,93,0.00,,,0.00,Wunderground v.1.15,2013-04-27 10:16:00,
2013-04-27 05:21:00,43.4,41.5,30.09,SE,146,0.0,0.0,93,0.00,,,0.00,Wunderground v.1.15,2013-04-27 10:21:00,
2013-04-27 05:27:00,43.4,41.5,30.09,SE,146,0.0,0.0,93,0.00,,,0.00,Wunderground v.1.15,2013-04-27 10:27:00,
2013-04-27 05:33:00,41.8,38.8,30.09,SE,146,0.0,0.0,89,0.00,,,0.00,Wunderground v.1.15,2013-04-27 10:33:00,
2013-04-27 05:39:00,40.0,36.7,30.09,SE,146,0.0,0.0,88,0.00,,,0.00,Wunderground v.1.15,2013-04-27 10:39:00,
2013-04-27 05:45:00,39.4,36.7,30.10,SE,146,0.0,0.0,90,0.00,,,0.00,Wunderground v.1.15,2013-04-27 10:45:00,
2013-04-27 05:51:00,39.2,36.8,30.10,SE,146,0.0,0.0,91,0.00,,,0.00,Wunderground v.1.15,2013-04-27 10:51:00,
2013-04-27 05:57:00,39.2,37.1,30.10,SE,146,0.0,0.0,92,0.00,,,0.00,Wunderground v.1.15,2013-04-27 10:57:00,
2013-04-27 06:03:00,39.2,37.1,30.10,SE,146,0.0,0.0,92,0.00,,,0.00,Wunderground v.1.15,2013-04-27 11:03:00,
2013-04-27 06:09:00,39.5,37.6,30.10,SE,146,0.0,0.0,93,0.00,,,0.00,Wunderground v.1.15,2013-04-27 11:09:00,
2013-04-27 06:14:00,40.2,38.6,30.10,SE,146,0.0,0.0,94,0.00,,,0.00,Wunderground v.1.15,2013-04-27 11:14:00,
2013-04-27 06:20:00,40.6,39.3,30.10,SSE,147,0.0,0.0,95,0.00,,,0.00,Wunderground v.1.15,2013-04-27 11:20:00,
2013-04-27 06:26:00,40.9,39.6,30.10,SSE,150,0.0,0.0,95,0.00,,,0.00,Wunderground v.1.15,2013-04-27 11:26:00,
2013-04-27 06:32:00,41.0,39.7,30.10,SSE,158,0.0,0.0,95,0.00,,,0.00,Wunderground v.1.15,2013-04-27 11:32:00,
2013-04-27 06:38:00,41.3,40.0,30.10,SSE,158,0.0,0.0,95,0.00,,,0.00,Wunderground v.1.15,2013-04-27 11:38:00,
2013-04-27 06:44:00,41.7,40.4,30.10,SSE,158,0.0,0.0,95,0.00,,,0.00,Wunderground v.1.15,2013-04-27 11:44:00,
2013-04-27 06:50:00,41.9,40.6,30.10,SSE,158,0.0,0.0,95,0.00,,,0.00,Wunderground v.1.15,2013-04-27 11:50:00,
2013-04-27 06:56:00,42.1,40.8,30.11,SSE,158,0.0,0.0,95,0.00,,,0.00,Wunderground v.1.15,2013-04-27 11:56:00,
2013-04-27 07:02:00,42.3,41.0,30.11,SSE,158,0.0,0.0,95,0.00,,,0.00,Wunderground v.1.15,2013-04-27 12:02:00,
2013-04-27 07:08:00,42.5,41.2,30.11,SSE,158,0.0,0.0,95,0.00,,,0.00,Wunderground v.1.15,2013-04-27 12:08:00,
2013-04-27 07:13:00,42.9,41.6,30.11,SSE,158,0.0,0.0,95,0.00,,,0.00,Wunderground v.1.15,2013-04-27 12:13:00,
2013-04-27 07:19:00,43.2,41.9,30.11,SSE,158,0.0,0.0,95,0.00,,,0.00,Wunderground v.1.15,2013-04-27 12:19:00,
2013-04-27 07:25:00,43.5,42.4,30.11,SSE,158,0.0,0.0,96,0.00,,,0.00,Wunderground v.1.15,2013-04-27 12:25:00,
2013-04-27 07:31:00,44.0,42.7,30.11,SSE,167,0.0,0.0,95,0.00,,,0.00,Wunderground v.1.15,2013-04-27 12:31:00,
2013-04-27 07:37:00,45.0,43.9,30.11,South,178,0.0,0.0,96,0.00,,,0.00,Wunderground v.1.15,2013-04-27 12:37:00,
2013-04-27 07:43:00,45.7,44.6,30.11,South,180,0.0,0.0,96,0.00,,,0.00,Wunderground v.1.15,2013-04-27 12:43:00,
2013-04-27 07:49:00,46.3,45.2,30.11,SSE,160,0.0,0.0,96,0.00,,,0.00,Wunderground v.1.15,2013-04-27 12:49:00,
2013-04-27 07:54:00,47.1,46.0,30.12,SE,126,0.0,0.0,96,0.00,,,0.00,Wunderground v.1.15,2013-04-27 12:54:00,
2013-04-27 08:01:00,48.1,46.7,30.12,SSW,200,0.0,0.0,95,0.00,,,0.00,Wunderground v.1.15,2013-04-27 13:01:00,
2013-04-27 08:06:00,49.2,47.5,30.12,South,174,0.0,0.0,94,0.00,,,0.00,Wunderground v.1.15,2013-04-27 13:06:00,
2013-04-27 08:12:00,50.1,47.9,30.13,South,187,0.0,0.0,92,0.00,,,0.00,Wunderground v.1.15,2013-04-27 13:12:00,
2013-04-27 08:18:00,50.9,48.1,30.13,SW,226,0.0,0.0,90,0.00,,,0.00,Wunderground v.1.15,2013-04-27 13:18:00,
2013-04-27 08:24:00,51.4,48.0,30.13,SW,223,0.0,0.0,88,0.00,,,0.00,Wunderground v.1.15,2013-04-27 13:24:00,
2013-04-27 08:30:00,51.9,48.5,30.13,WSW,239,0.0,0.0,88,0.00,,,0.00,Wunderground v.1.15,2013-04-27 13:30:00,
2013-04-27 08:35:00,52.4,48.6,30.12,SW,221,0.0,0.0,87,0.00,,,0.00,Wunderground v.1.15,2013-04-27 13:35:00,
2013-04-27 08:41:00,52.9,48.5,30.12,SW,234,0.0,0.0,85,0.00,,,0.00,Wunderground v.1.15,2013-04-27 13:41:00,
2013-04-27 08:48:00,53.0,48.6,30.12,SW,225,0.0,0.0,85,0.00,,,0.00,Wunderground v.1.15,2013-04-27 13:48:00,
2013-04-27 08:54:00,53.4,49.0,30.11,SSW,207,0.0,0.0,85,0.00,,,0.00,Wunderground v.1.15,2013-04-27 13:54:00,
2013-04-27 09:00:00,53.9,49.2,30.11,WSW,245,0.0,0.0,84,0.00,,,0.00,Wunderground v.1.15,2013-04-27 14:00:00,
2013-04-27 09:06:00,54.2,49.1,30.11,SW,234,0.0,0.0,83,0.00,,,0.00,Wunderground v.1.15,2013-04-27 14:06:00,
2013-04-27 09:12:00,54.5,49.4,30.11,SSW,211,0.0,0.0,83,0.00,,,0.00,Wunderground v.1.15,2013-04-27 14:12:00,
2013-04-27 09:18:00,55.3,49.9,30.11,SSW,212,0.0,0.0,82,0.00,,,0.00,Wunderground v.1.15,2013-04-27 14:18:00,
2013-04-27 09:24:00,55.8,49.7,30.10,SSW,210,0.0,0.0,80,0.00,,,0.00,Wunderground v.1.15,2013-04-27 14:24:00,
2013-04-27 09:30:00,56.0,50.3,30.10,SW,236,0.0,0.0,81,0.00,,,0.00,Wunderground v.1.15,2013-04-27 14:30:00,
2013-04-27 09:36:00,56.4,50.6,30.10,South,174,0.0,0.0,81,0.00,,,0.00,Wunderground v.1.15,2013-04-27 14:36:00,
2013-04-27 09:41:00,56.7,50.3,30.10,WSW,237,0.0,0.0,79,0.00,,,0.00,Wunderground v.1.15,2013-04-27 14:41:00,
2013-04-27 09:47:00,57.1,51.7,30.10,SSE,152,0.0,0.0,82,0.00,,,0.00,Wunderground v.1.15,2013-04-27 14:47:00,
2013-04-27 09:53:00,57.4,51.9,30.10,SSW,199,0.0,0.0,82,0.00,,,0.00,Wunderground v.1.15,2013-04-27 14:53:00,
2013-04-27 09:59:00,57.8,51.3,30.09,SW,215,0.0,0.0,79,0.00,,,0.00,Wunderground v.1.15,2013-04-27 14:59:00,
2013-04-27 10:05:00,57.8,51.3,30.09,WSW,237,0.0,0.0,79,0.00,,,0.00,Wunderground v.1.15,2013-04-27 15:05:00,
2013-04-27 10:11:00,58.1,52.0,30.09,SSE,153,0.0,0.0,80,0.00,,,0.00,Wunderground v.1.15,2013-04-27 15:11:00,
2013-04-27 10:17:00,59.1,51.5,30.09,SSW,193,0.0,0.0,76,0.00,,,0.00,Wunderground v.1.15,2013-04-27 15:17:00,
2013-04-27 10:23:00,59.6,51.3,30.09,SSW,213,0.0,0.0,74,0.00,,,0.00,Wunderground v.1.15,2013-04-27 15:23:00,
2013-04-27 10:29:00,59.7,52.5,30.09,SSW,210,0.0,0.0,77,0.00,,,0.00,Wunderground v.1.15,2013-04-27 15:29:00,
2013-04-27 10:35:00,60.6,52.3,30.08,South,184,0.0,0.0,74,0.00,,,0.00,Wunderground v.1.15,2013-04-27 15:35:00,
2013-04-27 10:41:00,61.1,51.6,30.09,SSE,163,0.0,0.0,71,0.00,,,0.00,Wunderground v.1.15,2013-04-27 15:41:00,
2013-04-27 10:47:00,61.4,52.7,30.08,WSW,244,0.0,0.0,73,0.00,,,0.00,Wunderground v.1.15,2013-04-27 15:47:00,
2013-04-27 10:53:00,62.0,53.2,30.08,SSW,196,0.0,0.0,73,0.00,,,0.00,Wunderground v.1.15,2013-04-27 15:53:00,
2013-04-27 10:59:00,62.1,53.0,30.08,SSE,161,0.0,0.0,72,0.00,,,0.00,Wunderground v.1.15,2013-04-27 15:59:00,
2013-04-27 11:05:00,62.4,51.7,30.08,SW,217,0.0,0.0,68,0.00,,,0.00,Wunderground v.1.15,2013-04-27 16:05:00,
2013-04-27 11:11:00,61.8,53.1,30.08,SSE,153,0.0,0.0,73,0.00,,,0.00,Wunderground v.1.15,2013-04-27 16:11:00,
2013-04-27 11:17:00,62.2,52.7,30.08,SSE,167,0.0,0.0,71,0.00,,,0.00,Wunderground v.1.15,2013-04-27 16:17:00,
2013-04-27 11:22:00,62.7,52.8,30.08,WSW,240,0.0,0.0,70,0.00,,,0.00,Wunderground v.1.15,2013-04-27 16:22:00,
2013-04-27 11:28:00,62.6,53.1,30.08,SW,223,0.0,0.0,71,0.00,,,0.00,Wunderground v.1.15,2013-04-27 16:28:00,
2013-04-27 11:34:00,62.4,52.5,30.08,SW,231,0.0,0.0,70,0.00,,,0.00,Wunderground v.1.15,2013-04-27 16:34:00,
2013-04-27 11:40:00,62.7,52.0,30.08,SW,215,0.0,0.0,68,0.00,,,0.00,Wunderground v.1.15,2013-04-27 16:40:00,
2013-04-27 11:46:00,62.7,52.4,30.08,WSW,238,0.0,0.0,69,0.00,,,0.00,Wunderground v.1.15,2013-04-27 16:46:00,
2013-04-27 11:52:00,63.0,53.1,30.08,SSW,206,0.0,0.0,70,0.00,,,0.00,Wunderground v.1.15,2013-04-27 16:52:00,
2013-04-27 11:58:00,63.4,52.7,30.07,West,279,0.0,0.0,68,0.00,,,0.00,Wunderground v.1.15,2013-04-27 16:58:00,
2013-04-27 12:03:00,63.7,52.5,30.07,South,191,0.0,0.0,67,0.00,,,0.00,Wunderground v.1.15,2013-04-27 17:03:00,
2013-04-27 12:09:00,63.9,53.5,30.07,SW,232,0.0,0.0,69,0.00,,,0.00,Wunderground v.1.15,2013-04-27 17:09:00,
2013-04-27 12:15:00,63.8,52.6,30.07,WNW,294,0.0,0.0,67,0.00,,,0.00,Wunderground v.1.15,2013-04-27 17:15:00,
2013-04-27 12:21:00,64.0,53.2,30.07,WSW,242,0.0,0.0,68,0.00,,,0.00,Wunderground v.1.15,2013-04-27 17:21:00,
2013-04-27 12:27:00,64.5,54.1,30.06,SW,229,0.0,0.0,69,0.00,,,0.00,Wunderground v.1.15,2013-04-27 17:27:00,
2013-04-27 12:33:00,64.5,52.9,30.06,SSW,192,0.0,0.0,66,0.00,,,0.00,Wunderground v.1.15,2013-04-27 17:33:00,
2013-04-27 12:39:00,64.9,52.8,30.06,SSE,157,0.0,0.0,65,0.00,,,0.00,Wunderground v.1.15,2013-04-27 17:39:00,
2013-04-27 12:44:00,65.6,54.3,30.06,WSW,244,0.0,0.0,67,0.00,,,0.00,Wunderground v.1.15,2013-04-27 17:44:00,
2013-04-27 12:50:00,65.7,53.6,30.05,West,260,0.0,0.0,65,0.00,,,0.00,Wunderground v.1.15,2013-04-27 17:50:00,
2013-04-27 12:56:00,65.7,54.0,30.05,SE,132,0.0,0.0,66,0.00,,,0.00,Wunderground v.1.15,2013-04-27 17:56:00,
2013-04-27 13:01:00,65.9,54.2,30.05,WSW,245,0.0,0.0,66,0.00,,,0.00,Wunderground v.1.15,2013-04-27 18:01:00,
2013-04-27 13:07:00,65.8,52.9,30.05,West,262,0.0,0.0,63,0.00,,,0.00,Wunderground v.1.15,2013-04-27 18:07:00,
2013-04-27 13:13:00,66.4,53.8,30.05,WSW,244,0.0,0.0,64,0.00,,,0.00,Wunderground v.1.15,2013-04-27 18:13:00,
2013-04-27 13:18:00,66.5,53.5,30.04,WSW,237,0.0,0.0,63,0.00,,,0.00,Wunderground v.1.15,2013-04-27 18:18:00,
2013-04-27 13:24:00,66.8,54.2,30.04,SW,234,0.0,0.0,64,0.00,,,0.00,Wunderground v.1.15,2013-04-27 18:24:00,
2013-04-27 13:30:00,66.5,52.2,30.04,SW,219,0.0,0.0,60,0.00,,,0.00,Wunderground v.1.15,2013-04-27 18:30:00,
2013-04-27 13:36:00,67.0,52.2,30.03,West,264,0.0,0.0,59,0.00,,,0.00,Wunderground v.1.15,2013-04-27 18:36:00,
2013-04-27 13:42:00,67.1,52.3,30.03,WNW,300,0.0,0.0,59,0.00,,,0.00,Wunderground v.1.15,2013-04-27 18:42:00,
2013-04-27 13:47:00,67.6,51.3,30.03,SSW,194,0.0,0.0,56,0.00,,,0.00,Wunderground v.1.15,2013-04-27 18:47:00,
2013-04-27 13:53:00,68.1,53.7,30.03,SSW,203,0.0,0.0,60,0.00,,,0.00,Wunderground v.1.15,2013-04-27 18:53:00,
2013-04-27 13:59:00,68.2,50.9,30.03,WSW,249,0.0,0.0,54,0.00,,,0.00,Wunderground v.1.15,2013-04-27 18:59:00,
2013-04-27 14:04:00,67.1,50.4,30.02,SW,214,0.0,0.0,55,0.00,,,0.00,Wunderground v.1.15,2013-04-27 19:04:00,
2013-04-27 14:10:00,67.7,51.9,30.02,SSE,148,0.0,0.0,57,0.00,,,0.00,Wunderground v.1.15,2013-04-27 19:10:00,
2013-04-27 14:16:00,68.0,52.2,30.02,SSE,147,0.0,0.0,57,0.00,,,0.00,Wunderground v.1.15,2013-04-27 19:16:00,
2013-04-27 14:22:00,68.0,50.7,30.02,SW,223,0.0,0.0,54,0.00,,,0.00,Wunderground v.1.15,2013-04-27 19:22:00,
2013-04-27 14:27:00,68.6,54.2,30.02,NW,317,0.0,0.0,60,0.00,,,0.00,Wunderground v.1.15,2013-04-27 19:27:00,
2013-04-27 14:33:00,68.9,50.0,30.02,South,185,0.0,0.0,51,0.00,,,0.00,Wunderground v.1.15,2013-04-27 19:33:00,
2013-04-27 14:39:00,68.8,52.0,30.01,SSE,165,0.0,0.0,55,0.00,,,0.00,Wunderground v.1.15,2013-04-27 19:39:00,
2013-04-27 14:45:00,68.9,52.1,30.01,SE,142,0.0,0.0,55,0.00,,,0.00,Wunderground v.1.15,2013-04-27 19:45:00,
2013-04-27 14:51:00,68.1,51.3,30.01,SSE,164,0.0,0.0,55,0.00,,,0.00,Wunderground v.1.15,2013-04-27 19:51:00,
2013-04-27 14:57:00,67.5,52.2,30.01,South,178,0.0,0.0,58,0.00,,,0.00,Wunderground v.1.15,2013-04-27 19:57:00,
2013-04-27 15:02:00,67.5,52.2,30.01,South,184,0.0,0.0,58,0.00,,,0.00,Wunderground v.1.15,2013-04-27 20:02:00,
2013-04-27 15:08:00,67.6,52.3,30.01,SSE,166,0.0,0.0,58,0.00,,,0.00,Wunderground v.1.15,2013-04-27 20:08:00,
2013-04-27 15:14:00,68.0,53.1,30.00,ESE,123,0.0,0.0,59,0.00,,,0.00,Wunderground v.1.15,2013-04-27 20:14:00,
2013-04-27 15:20:00,68.5,52.7,30.00,SSE,152,0.0,0.0,57,0.00,,,0.00,Wunderground v.1.15,2013-04-27 20:20:00,
2013-04-27 15:26:00,68.5,52.2,30.00,SSW,201,0.0,0.0,56,0.00,,,0.00,Wunderground v.1.15,2013-04-27 20:26:00,
2013-04-27 15:32:00,68.8,53.4,30.00,SSW,195,0.0,0.0,58,0.00,,,0.00,Wunderground v.1.15,2013-04-27 20:32:00,
2013-04-27 15:37:00,69.2,52.8,29.99,SW,220,0.0,0.0,56,0.00,,,0.00,Wunderground v.1.15,2013-04-27 20:37:00,
2013-04-27 15:43:00,70.0,51.6,29.99,SW,220,0.0,0.0,52,0.00,,,0.00,Wunderground v.1.15,2013-04-27 20:43:00,
2013-04-27 15:49:00,70.3,52.9,29.99,WSW,249,0.0,0.0,54,0.00,,,0.00,Wunderground v.1.15,2013-04-27 20:49:00,
2013-04-27 15:55:00,69.7,50.8,29.99,ENE,67,0.0,0.0,51,0.00,,,0.00,Wunderground v.1.15,2013-04-27 20:55:00,
2013-04-27 16:00:00,69.9,50.9,29.99,SSE,162,0.0,0.0,51,0.00,,,0.00,Wunderground v.1.15,2013-04-27 21:00:00,
2013-04-27 16:06:00,70.2,51.7,29.98,SW,230,0.0,0.0,52,0.00,,,0.00,Wunderground v.1.15,2013-04-27 21:06:00,
2013-04-27 16:12:00,70.5,52.0,29.98,South,178,0.0,0.0,52,0.00,,,0.00,Wunderground v.1.15,2013-04-27 21:12:00,
2013-04-27 16:18:00,70.1,50.6,29.98,SSW,200,0.0,0.0,50,0.00,,,0.00,Wunderground v.1.15,2013-04-27 21:18:00,
2013-04-27 16:23:00,70.1,51.7,29.98,SSE,156,0.0,0.0,52,0.00,,,0.00,Wunderground v.1.15,2013-04-27 21:23:00,
2013-04-27 16:29:00,70.8,53.3,29.97,SSW,196,0.0,0.0,54,0.00,,,0.00,Wunderground v.1.15,2013-04-27 21:29:00,
2013-04-27 16:35:00,71.1,52.6,29.97,SSE,147,0.0,0.0,52,0.00,,,0.00,Wunderground v.1.15,2013-04-27 21:35:00,
2013-04-27 16:41:00,70.9,50.8,29.97,SSE,160,0.0,0.0,49,0.00,,,0.00,Wunderground v.1.15,2013-04-27 21:41:00,
2013-04-27 16:47:00,70.2,51.2,29.97,South,184,0.0,0.0,51,0.00,,,0.00,Wunderground v.1.15,2013-04-27 21:47:00,
2013-04-27 16:53:00,69.3,50.9,29.97,South,176,0.0,0.0,52,0.00,,,0.00,Wunderground v.1.15,2013-04-27 21:53:00,
2013-04-27 16:58:00,68.7,50.9,29.96,South,173,0.0,0.0,53,0.00,,,0.00,Wunderground v.1.15,2013-04-27 21:58:00,
2013-04-27 17:04:00,68.4,51.1,29.96,SSW,199,0.0,0.0,54,0.00,,,0.00,Wunderground v.1.15,2013-04-27 22:04:00,
2013-04-27 17:10:00,68.6,50.3,29.96,South,169,0.0,0.0,52,0.00,,,0.00,Wunderground v.1.15,2013-04-27 22:10:00,
2013-04-27 17:15:00,69.3,50.9,29.96,SSE,151,0.0,0.0,52,0.00,,,0.00,Wunderground v.1.15,2013-04-27 22:15:00,
2013-04-27 17:21:00,69.8,50.3,29.96,South,182,0.0,0.0,50,0.00,,,0.00,Wunderground v.1.15,2013-04-27 22:21:00,
2013-04-27 17:26:00,70.0,49.4,29.96,South,187,0.0,0.0,48,0.00,,,0.00,Wunderground v.1.15,2013-04-27 22:26:00,
2013-04-27 17:31:00,69.4,50.5,29.96,SW,227,0.0,0.0,51,0.00,,,0.00,Wunderground v.1.15,2013-04-27 22:31:00,
2013-04-27 17:37:00,69.0,50.6,29.96,SSE,148,0.0,0.0,52,0.00,,,0.00,Wunderground v.1.15,2013-04-27 22:37:00,
2013-04-27 17:43:00,68.9,50.0,29.96,SSE,167,0.0,0.0,51,0.00,,,0.00,Wunderground v.1.15,2013-04-27 22:43:00,
2013-04-27 17:49:00,68.8,51.0,29.95,SSE,157,0.0,0.0,53,0.00,,,0.00,Wunderground v.1.15,2013-04-27 22:49:00,
2013-04-27 17:54:00,68.3,50.5,29.95,South,187,0.0,0.0,53,0.00,,,0.00,Wunderground v.1.15,2013-04-27 22:54:00,
2013-04-27 18:00:00,68.0,51.7,29.95,SSW,201,0.0,0.0,56,0.00,,,0.00,Wunderground v.1.15,2013-04-27 23:00:00,
2013-04-27 18:06:00,67.7,50.9,29.95,SE,140,0.0,0.0,55,0.00,,,0.00,Wunderground v.1.15,2013-04-27 23:06:00,
2013-04-27 18:11:00,67.6,49.9,29.95,SSW,208,0.0,0.0,53,0.00,,,0.00,Wunderground v.1.15,2013-04-27 23:11:00,
2013-04-27 18:17:00,67.1,50.4,29.95,SSW,197,0.0,0.0,55,0.00,,,0.00,Wunderground v.1.15,2013-04-27 23:17:00,
2013-04-27 18:23:00,66.9,50.7,29.95,South,187,0.0,0.0,56,0.00,,,0.00,Wunderground v.1.15,2013-04-27 23:23:00,
2013-04-27 18:29:00,67.5,51.2,29.94,SW,214,0.0,0.0,56,0.00,,,0.00,Wunderground v.1.15,2013-04-27 23:29:00,
2013-04-27 18:35:00,68.1,50.3,29.94,SSW,195,0.0,0.0,53,0.00,,,0.00,Wunderground v.1.15,2013-04-27 23:35:00,
2013-04-27 18:41:00,68.2,50.9,29.94,SSE,161,0.0,0.0,54,0.00,,,0.00,Wunderground v.1.15,2013-04-27 23:41:00,
2013-04-27 18:47:00,67.8,50.5,29.94,South,186,0.0,0.0,54,0.00,,,0.00,Wunderground v.1.15,2013-04-27 23:47:00,
2013-04-27 18:53:00,67.3,50.1,29.94,SSE,157,0.0,0.0,54,0.00,,,0.00,Wunderground v.1.15,2013-04-27 23:53:00,
2013-04-27 18:59:00,66.5,50.8,29.94,SSE,159,0.0,0.0,57,0.00,,,0.00,Wunderground v.1.15,2013-04-27 23:59:00,
2013-04-27 19:05:00,65.8,50.6,29.94,South,185,0.0,0.0,58,0.00,,,0.00,Wunderground v.1.15,2013-04-28 00:05:00,
2013-04-27 19:11:00,65.4,50.2,29.94,SSE,166,0.0,0.0,58,0.00,,,0.00,Wunderground v.1.15,2013-04-28 00:11:00,
2013-04-27 19:16:00,65.0,50.8,29.94,South,191,0.0,0.0,60,0.00,,,0.00,Wunderground v.1.15,2013-04-28 00:16:00,
2013-04-27 19:22:00,64.6,50.4,29.94,South,188,0.0,0.0,60,0.00,,,0.00,Wunderground v.1.15,2013-04-28 00:22:00,
2013-04-27 19:28:00,64.0,50.3,29.94,South,171,0.0,0.0,61,0.00,,,0.00,Wunderground v.1.15,2013-04-28 00:28:00,
2013-04-27 19:33:00,63.6,49.9,29.94,SSW,193,0.0,0.0,61,0.00,,,0.00,Wunderground v.1.15,2013-04-28 00:33:00,
2013-04-27 19:39:00,63.0,50.6,29.94,SE,146,0.0,0.0,64,0.00,,,0.00,Wunderground v.1.15,2013-04-28 00:39:00,
2013-04-27 19:45:00,62.5,49.7,29.94,South,186,0.0,0.0,63,0.00,,,0.00,Wunderground v.1.15,2013-04-28 00:45:00,
2013-04-27 19:50:00,62.2,49.9,29.94,South,174,0.0,0.0,64,0.00,,,0.00,Wunderground v.1.15,2013-04-28 00:50:00,
2013-04-27 19:56:00,61.8,49.9,29.94,SSW,204,0.0,0.0,65,0.00,,,0.00,Wunderground v.1.15,2013-04-28 00:56:00,
2013-04-27 20:01:00,61.5,50.0,29.94,South,188,0.0,0.0,66,0.00,,,0.00,Wunderground v.1.15,2013-04-28 01:01:00,
2013-04-27 20:07:00,61.2,49.3,29.94,South,179,0.0,0.0,65,0.00,,,0.00,Wunderground v.1.15,2013-04-28 01:07:00,
2013-04-27 20:13:00,60.9,49.5,29.94,South,180,0.0,0.0,66,0.00,,,0.00,Wunderground v.1.15,2013-04-28 01:13:00,
2013-04-27 20:19:00,60.7,49.7,29.94,South,181,0.0,0.0,67,0.00,,,0.00,Wunderground v.1.15,2013-04-28 01:19:00,
2013-04-27 20:25:00,60.5,49.5,29.95,South,173,0.0,0.0,67,0.00,,,0.00,Wunderground v.1.15,2013-04-28 01:25:00,
2013-04-27 20:30:00,60.3,49.7,29.95,SSW,205,0.0,0.0,68,0.00,,,0.00,Wunderground v.1.15,2013-04-28 01:30:00,
2013-04-27 20:36:00,60.1,49.5,29.94,SSE,165,0.0,0.0,68,0.00,,,0.00,Wunderground v.1.15,2013-04-28 01:36:00,
2013-04-27 20:42:00,59.9,49.3,29.95,SE,138,0.0,0.0,68,0.00,,,0.00,Wunderground v.1.15,2013-04-28 01:42:00,
2013-04-27 20:47:00,59.7,49.5,29.95,South,176,0.0,0.0,69,0.00,,,0.00,Wunderground v.1.15,2013-04-28 01:47:00,
2013-04-27 20:53:00,59.3,49.1,29.95,South,180,0.0,0.0,69,0.00,,,0.00,Wunderground v.1.15,2013-04-28 01:53:00,
2013-04-27 20:59:00,58.9,49.1,29.95,South,184,0.0,0.0,70,0.00,,,0.00,Wunderground v.1.15,2013-04-28 01:59:00,
2013-04-27 21:05:00,58.5,48.4,29.95,SE,132,0.0,0.0,69,0.00,,,0.00,Wunderground v.1.15,2013-04-28 02:05:00,
2013-04-27 21:11:00,58.0,48.3,29.95,SSW,193,0.0,0.0,70,0.00,,,0.00,Wunderground v.1.15,2013-04-28 02:11:00,
2013-04-27 21:17:00,57.5,47.8,29.95,SSW,195,0.0,0.0,70,0.00,,,0.00,Wunderground v.1.15,2013-04-28 02:17:00,
2013-04-27 21:22:00,57.1,47.8,29.95,ESE,121,0.0,0.0,71,0.00,,,0.00,Wunderground v.1.15,2013-04-28 02:22:00,
2013-04-27 21:28:00,56.6,47.7,29.95,South,190,0.0,0.0,72,0.00,,,0.00,Wunderground v.1.15,2013-04-28 02:28:00,
2013-04-27 21:34:00,56.2,47.3,29.95,SSE,164,0.0,0.0,72,0.00,,,0.00,Wunderground v.1.15,2013-04-28 02:34:00,
2013-04-27 21:39:00,55.9,47.4,29.95,South,171,0.0,0.0,73,0.00,,,0.00,Wunderground v.1.15,2013-04-28 02:39:00,
2013-04-27 21:45:00,55.6,47.1,29.95,SSE,161,0.0,0.0,73,0.00,,,0.00,Wunderground v.1.15,2013-04-28 02:45:00,
2013-04-27 21:51:00,55.3,47.2,29.95,South,188,0.0,0.0,74,0.00,,,0.00,Wunderground v.1.15,2013-04-28 02:51:00,
2013-04-27 21:56:00,54.9,46.8,29.95,South,175,0.0,0.0,74,0.00,,,0.00,Wunderground v.1.15,2013-04-28 02:56:00,
2013-04-27 22:02:00,54.6,46.8,29.95,South,174,0.0,0.0,75,0.00,,,0.00,Wunderground v.1.15,2013-04-28 03:02:00,
2013-04-27 22:08:00,54.5,46.7,29.95,South,187,0.0,0.0,75,0.00,,,0.00,Wunderground v.1.15,2013-04-28 03:08:00,
2013-04-27 22:14:00,54.2,46.8,29.95,SSW,199,0.0,0.0,76,0.00,,,0.00,Wunderground v.1.15,2013-04-28 03:14:00,
2013-04-27 22:19:00,54.0,46.6,29.95,SSW,199,0.0,0.0,76,0.00,,,0.00,Wunderground v.1.15,2013-04-28 03:19:00,
2013-04-27 22:25:00,53.6,46.2,29.95,SSE,166,0.0,0.0,76,0.00,,,0.00,Wunderground v.1.15,2013-04-28 03:25:00,
2013-04-27 22:31:00,53.3,46.3,29.95,South,187,0.0,0.0,77,0.00,,,0.00,Wunderground v.1.15,2013-04-28 03:31:00,
2013-04-27 22:37:00,53.1,46.1,29.95,South,174,0.0,0.0,77,0.00,,,0.00,Wunderground v.1.15,2013-04-28 03:37:00,
2013-04-27 22:43:00,53.0,46.3,29.95,South,179,0.0,0.0,78,0.00,,,0.00,Wunderground v.1.15,2013-04-28 03:43:00,
2013-04-27 22:48:00,52.8,46.1,29.95,South,179,0.0,0.0,78,0.00,,,0.00,Wunderground v.1.15,2013-04-28 03:48:00,
2013-04-27 22:54:00,52.6,45.9,29.95,SSE,148,0.0,0.0,78,0.00,,,0.00,Wunderground v.1.15,2013-04-28 03:54:00,
2013-04-27 23:00:00,52.5,45.8,29.95,SSE,166,0.0,0.0,78,0.00,,,0.00,Wunderground v.1.15,2013-04-28 04:00:00,
2013-04-27 23:01:00,52.5,45.8,29.95,SSE,166,0.0,0.0,78,0.00,,,0.00,Wunderground v.1.15,2013-04-28 04:01:00,
2013-04-27 23:02:00,52.5,45.8,29.95,SSE,166,0.0,0.0,78,0.00,,,0.00,Wunderground v.1.15,2013-04-28 04:02:00,
2013-04-27 23:03:00,52.5,45.8,29.95,South,184,0.0,0.0,78,0.00,,,0.00,Wunderground v.1.15,2013-04-28 04:03:00,
2013-04-27 23:04:00,52.5,45.8,29.95,South,184,0.0,0.0,78,0.00,,,0.00,Wunderground v.1.15,2013-04-28 04:04:00,
2013-04-27 23:09:00,52.4,45.7,29.95,SSW,202,0.0,0.0,78,0.00,,,0.00,Wunderground v.1.15,2013-04-28 04:09:00,
2013-04-27 23:12:00,52.3,46.0,29.95,SSE,161,0.0,0.0,79,0.00,,,0.00,Wunderground v.1.15,2013-04-28 04:12:00,
2013-04-27 23:18:00,52.1,45.8,29.95,SSE,161,0.0,0.0,79,0.00,,,0.00,Wunderground v.1.15,2013-04-28 04:18:00,
2013-04-27 23:23:00,51.8,45.5,29.95,SSE,161,0.0,0.0,79,0.00,,,0.00,Wunderground v.1.15,2013-04-28 04:23:00,
2013-04-27 23:29:00,51.5,45.2,29.94,South,180,0.0,0.0,79,0.00,,,0.00,Wunderground v.1.15,2013-04-28 04:29:00,
2013-04-27 23:35:00,51.0,45.0,29.94,South,177,0.0,0.0,80,0.00,,,0.00,Wunderground v.1.15,2013-04-28 04:35:00,
2013-04-27 23:41:00,50.6,45.0,29.94,South,177,0.0,0.0,81,0.00,,,0.00,Wunderground v.1.15,2013-04-28 04:41:00,
2013-04-27 23:47:00,50.4,44.8,29.94,South,188,0.0,0.0,81,0.00,,,0.00,Wunderground v.1.15,2013-04-28 04:47:00,
2013-04-27 23:53:00,50.1,44.8,29.94,South,178,0.0,0.0,82,0.00,,,0.00,Wunderground v.1.15,2013-04-28 04:53:00,
2013-04-27 23:59:00,49.9,44.9,29.94,South,184,0.0,0.0,83,0.00,,,0.00,Wunderground v.1.15,2013-04-28 04:59:00,